Time;durP1;ratioP1;P1;durP2;ratioP2;P2;SDS_P1;SDS_P2;PMS_P1;PMS_P2;Temp;Humidity;BMP_temperature;BMP_pressure;BME280_temperature;BME280_humidity;BME280_pressure;Samples;Min_cycle;Max_cycle;Signal;HPM_P1;HPM_P2
2022/12/03 00:03:59;;;;;;;82.13;32.57;;;-0.50;99.90;;;;;;10280417;28;20738;-81
2022/12/03 00:09:00;;;;;;;78.43;32.27;;;-0.40;99.90;;;;;;10279566;28;20097;-79
2022/12/03 00:14:00;;;;;;;85.53;30.40;;;-0.40;99.90;;;;;;10278312;28;20045;-80
2022/12/03 00:19:01;;;;;;;85.13;31.17;;;-0.30;99.90;;;;;;10278185;28;20074;-82
2022/12/03 00:24:01;;;;;;;76.80;31.03;;;-0.30;99.90;;;;;;10278418;28;20462;-81
2022/12/03 00:29:02;;;;;;;82.80;32.63;;;-0.30;99.90;;;;;;10279909;28;20659;-82
2022/12/03 00:34:03;;;;;;;79.97;31.03;;;-0.30;99.90;;;;;;10278757;28;20041;-82
2022/12/03 00:39:03;;;;;;;79.07;32.53;;;-0.20;99.90;;;;;;10278962;28;20048;-80
2022/12/03 00:44:04;;;;;;;84.83;33.10;;;-0.10;99.90;;;;;;10272220;28;20030;-80
2022/12/03 00:49:05;;;;;;;76.03;30.67;;;-0.10;99.90;;;;;;10278232;28;20113;-80
2022/12/03 00:54:05;;;;;;;77.50;31.00;;;-0.10;99.90;;;;;;10278434;28;20031;-82
2022/12/03 00:59:06;;;;;;;76.10;29.57;;;-0.10;99.90;;;;;;10279397;28;20035;-81
2022/12/03 01:04:07;;;;;;;74.30;31.67;;;-0.10;99.90;;;;;;10280652;28;20030;-81
2022/12/03 01:09:07;;;;;;;80.03;32.03;;;-0.20;99.90;;;;;;10279784;28;20039;-80
2022/12/03 01:14:11;;;;;;;87.70;32.83;;;-0.20;99.90;;;;;;10278826;28;20081;-80
2022/12/03 01:19:14;;;;;;;77.50;30.03;;;-0.20;99.90;;;;;;10279023;28;20121;-80
2022/12/03 01:24:16;;;;;;;70.97;28.97;;;-0.20;99.90;;;;;;10278092;28;20047;-81
2022/12/03 01:29:17;;;;;;;78.53;28.40;;;-0.20;99.90;;;;;;10278639;28;20058;-81
2022/12/03 01:34:17;;;;;;;70.50;30.20;;;-0.10;99.90;;;;;;10275903;28;20111;-81
2022/12/03 01:39:18;;;;;;;69.80;30.70;;;0.00;99.90;;;;;;10278141;28;20039;-80
2022/12/03 01:44:23;;;;;;;76.53;33.37;;;0.00;99.90;;;;;;10271487;28;20483;-81
2022/12/03 01:49:39;;;;;;;80.50;31.77;;;0.00;99.90;;;;;;10277030;28;20038;-83
2022/12/03 01:54:43;;;;;;;;;;;0.00;99.90;;;;;;10278602;28;20026;-82
2022/12/03 01:59:43;;;;;;;74.50;30.33;;;0.00;99.90;;;;;;10275536;28;19922;-82
2022/12/03 02:04:44;;;;;;;67.30;27.50;;;-0.10;99.90;;;;;;10266764;28;20027;-79
2022/12/03 02:09:45;;;;;;;70.47;29.77;;;-0.10;99.90;;;;;;10285344;28;20110;-79
2022/12/03 02:14:45;;;;;;;76.00;30.63;;;0.00;99.90;;;;;;10271306;28;20043;-80
2022/12/03 02:19:47;;;;;;;72.73;31.60;;;0.00;99.90;;;;;;10284501;28;20042;-81
2022/12/03 02:24:51;;;;;;;73.73;30.03;;;0.00;99.90;;;;;;10275951;28;20133;-81
2022/12/03 02:29:51;;;;;;;66.70;29.57;;;0.00;99.90;;;;;;10285118;28;20027;-81
2022/12/03 02:34:52;;;;;;;67.03;28.43;;;0.00;99.90;;;;;;10281320;28;20035;-82
2022/12/03 02:39:56;;;;;;;73.63;29.77;;;0.10;99.90;;;;;;10283485;28;20482;-82
2022/12/03 02:45:01;;;;;;;71.10;29.03;;;0.10;99.90;;;;;;10282003;28;20531;-80
2022/12/03 02:50:02;;;;;;;66.90;29.30;;;0.20;99.90;;;;;;10275133;28;20022;-81
2022/12/03 02:55:05;;;;;;;72.30;29.17;;;0.20;99.90;;;;;;10283218;28;20054;-81
2022/12/03 03:00:08;;;;;;;66.77;28.23;;;0.20;99.90;;;;;;10282332;28;20089;-81
2022/12/03 03:05:10;;;;;;;63.67;26.80;;;0.20;99.90;;;;;;10281963;28;20030;-80
2022/12/03 03:10:15;;;;;;;71.70;29.23;;;0.20;99.90;;;;;;10282236;28;20042;-80
2022/12/03 03:15:16;;;;;;;66.23;27.43;;;0.10;99.90;;;;;;10278499;28;20059;-81
2022/12/03 03:20:18;;;;;;;67.57;30.13;;;0.20;99.90;;;;;;10280308;28;20085;-80
2022/12/03 03:25:23;;;;;;;62.47;30.37;;;0.20;99.90;;;;;;10269450;28;20054;-80
2022/12/03 03:30:24;;;;;;;61.58;28.48;;;0.20;99.90;;;;;;10281131;28;20062;-79
2022/12/03 03:35:24;;;;;;;63.13;29.20;;;0.20;99.90;;;;;;10281477;28;20067;-81
2022/12/03 03:40:26;;;;;;;62.70;27.30;;;0.20;99.90;;;;;;10280659;28;20019;-80
2022/12/03 03:45:26;;;;;;;61.97;27.30;;;0.30;99.90;;;;;;10280245;28;20792;-80
2022/12/03 03:50:29;;;;;;;67.33;27.60;;;0.30;99.90;;;;;;10278371;28;20034;-80
2022/12/03 03:55:30;;;;;;;67.87;28.13;;;0.30;99.90;;;;;;10281951;28;20057;-81
2022/12/03 04:00:40;;;;;;;64.23;26.27;;;0.30;99.90;;;;;;10278123;28;20038;-82
2022/12/03 04:05:41;;;;;;;64.53;28.00;;;0.30;99.90;;;;;;10257916;28;20023;-82
2022/12/03 04:16:00;;;;;;;59.73;26.73;;;0.20;99.90;;;;;;10281081;28;20042;-82
2022/12/03 04:36:59;;;;;;;62.60;27.43;;;0.30;99.90;;;;;;10279355;28;20034;-80
2022/12/03 04:42:00;;;;;;;66.03;29.33;;;0.30;99.90;;;;;;10279398;28;20035;-81
2022/12/03 04:47:16;;;;;;;58.23;27.37;;;0.40;99.90;;;;;;10279653;28;20027;-80
2022/12/03 04:52:18;;;;;;;;;;;0.40;99.90;;;;;;10277781;28;20062;-82
2022/12/03 04:57:18;;;;;;;71.87;30.43;;;0.40;99.90;;;;;;10279975;28;20679;-80
2022/12/03 05:02:19;;;;;;;70.40;29.03;;;0.40;99.90;;;;;;10280029;28;20034;-83
2022/12/03 05:07:19;;;;;;;66.67;26.60;;;0.40;99.90;;;;;;10279008;28;20562;-83
2022/12/03 05:12:20;;;;;;;74.17;29.77;;;0.40;99.90;;;;;;10279662;28;20046;-82
2022/12/03 05:17:20;;;;;;;67.90;27.83;;;0.40;99.90;;;;;;10274528;28;20426;-79
2022/12/03 05:22:21;;;;;;;84.13;32.10;;;0.40;99.90;;;;;;10275576;28;20058;-79
2022/12/03 05:27:21;;;;;;;85.43;32.20;;;0.40;99.90;;;;;;10265475;28;20109;-80
2022/12/03 05:32:22;;;;;;;76.87;31.27;;;0.40;99.90;;;;;;10275135;28;20121;-79
2022/12/03 05:37:22;;;;;;;85.83;33.33;;;0.50;99.90;;;;;;10301675;28;20068;-79
2022/12/03 05:47:42;;;;;;;77.27;31.47;;;0.50;99.90;;;;;;10287599;28;20062;-82
2022/12/03 05:52:42;;;;;;;83.40;33.70;;;0.40;99.90;;;;;;10283400;28;20122;-80
2022/12/03 05:57:43;;;;;;;138.00;60.33;;;0.50;99.90;;;;;;10284534;28;20129;-80
2022/12/03 06:02:44;;;;;;;131.10;56.60;;;0.40;99.90;;;;;;10266397;28;20039;-83
2022/12/03 06:07:46;;;;;;;89.37;37.63;;;0.50;99.90;;;;;;10276888;28;20056;-81
2022/12/03 06:12:46;;;;;;;102.40;37.77;;;0.50;99.90;;;;;;10285402;28;20046;-80
2022/12/03 06:17:47;;;;;;;130.10;58.00;;;0.50;99.90;;;;;;10283758;28;20035;-80
2022/12/03 06:22:47;;;;;;;185.67;87.83;;;0.40;99.90;;;;;;10284746;28;20047;-80
2022/12/03 06:27:48;;;;;;;227.40;122.33;;;0.40;99.90;;;;;;10284836;28;20035;-81
2022/12/03 06:32:48;;;;;;;125.47;49.43;;;0.30;99.90;;;;;;10333858;23;20066;-80
2022/12/03 06:37:49;;;;;;;96.93;38.43;;;0.20;99.90;;;;;;10325573;28;20389;-83
2022/12/03 06:42:50;;;;;;;116.33;46.17;;;0.20;99.90;;;;;;10324470;28;20034;-82
2022/12/03 06:47:50;;;;;;;144.67;57.67;;;0.20;99.90;;;;;;10324376;28;20117;-81
2022/12/03 06:52:51;;;;;;;131.17;55.30;;;0.10;99.90;;;;;;10321829;28;20153;-83
2022/12/03 06:57:51;;;;;;;146.87;54.80;;;0.20;99.90;;;;;;10322881;28;20117;-81
2022/12/03 07:02:52;;;;;;;135.47;51.83;;;0.20;99.90;;;;;;10323459;28;20038;-81
2022/12/03 07:07:54;;;;;;;117.67;47.83;;;0.30;99.90;;;;;;10323500;28;20548;-81
2022/12/03 07:12:54;;;;;;;106.20;45.23;;;0.20;99.90;;;;;;10296318;28;20062;-80
2022/12/03 07:17:55;;;;;;;99.93;41.60;;;0.30;99.90;;;;;;10283856;28;20042;-82
2022/12/03 07:22:55;;;;;;;119.27;45.70;;;0.30;99.90;;;;;;10293337;28;20080;-81
2022/12/03 07:27:56;;;;;;;118.13;46.93;;;0.30;99.90;;;;;;10321576;28;20490;-81
2022/12/03 07:32:56;;;;;;;125.27;47.83;;;0.30;99.90;;;;;;10322938;28;20085;-81
2022/12/03 07:37:57;;;;;;;128.03;43.43;;;0.30;99.90;;;;;;10317946;28;20049;-81
2022/12/03 07:42:57;;;;;;;100.37;40.60;;;0.30;99.90;;;;;;10320935;28;20483;-80
2022/12/03 07:47:58;;;;;;;106.50;41.20;;;0.20;99.90;;;;;;10318560;28;20042;-82
2022/12/03 07:52:58;;;;;;;137.77;54.43;;;0.20;99.90;;;;;;10309416;28;20035;-80
2022/12/03 07:57:59;;;;;;;150.93;65.03;;;0.20;99.90;;;;;;10309449;28;20486;-81
2022/12/03 08:02:59;;;;;;;126.40;56.83;;;0.30;99.90;;;;;;10310952;28;20034;-81
2022/12/03 08:08:00;;;;;;;126.70;56.53;;;0.30;99.90;;;;;;10320312;28;20072;-80
2022/12/03 08:13:03;;;;;;;124.13;55.67;;;0.30;99.90;;;;;;10320763;28;20030;-80
2022/12/03 08:18:17;;;;;;;171.30;96.20;;;0.40;99.90;;;;;;10324241;28;20398;-82
2022/12/03 08:23:23;;;;;;;103.53;44.17;;;0.40;99.90;;;;;;10320425;28;20037;-81
2022/12/03 08:28:25;;;;;;;145.07;59.30;;;0.40;99.90;;;;;;10319365;28;20073;-81
2022/12/03 08:33:34;;;;;;;130.80;60.93;;;0.30;99.90;;;;;;10319434;28;20070;-81
2022/12/03 08:38:35;;;;;;;137.63;61.80;;;0.40;99.90;;;;;;10318580;28;20093;-81
2022/12/03 08:43:41;;;;;;;163.70;80.27;;;0.40;99.90;;;;;;10319179;28;20532;-80
2022/12/03 08:54:20;;;;;;;111.13;48.10;;;0.60;99.90;;;;;;10321193;28;20479;-80
2022/12/03 08:59:29;;;;;;;112.90;53.10;;;0.60;99.90;;;;;;10322355;28;20038;-83
2022/12/03 09:04:44;;;;;;;284.50;125.33;;;0.70;99.90;;;;;;10322659;28;20555;-80
2022/12/03 09:09:45;;;;;;;134.13;57.10;;;0.70;99.90;;;;;;10322387;28;20034;-80
2022/12/03 09:14:46;;;;;;;103.03;42.40;;;0.70;99.90;;;;;;10321300;28;20029;-83
2022/12/03 09:19:46;;;;;;;113.80;40.10;;;0.80;99.90;;;;;;10329813;28;20425;-82
2022/12/03 09:24:47;;;;;;;111.67;43.37;;;0.80;99.90;;;;;;10330886;28;20030;-81
2022/12/03 09:29:48;;;;;;;112.63;44.43;;;0.80;99.90;;;;;;10310823;28;20486;-82
2022/12/03 09:34:49;;;;;;;126.37;48.73;;;0.80;99.90;;;;;;10323774;28;20038;-81
2022/12/03 09:39:49;;;;;;;100.87;44.73;;;0.90;99.90;;;;;;10329448;28;20108;-81
2022/12/03 09:44:50;;;;;;;121.20;48.97;;;0.90;99.90;;;;;;10324615;28;20042;-82
2022/12/03 09:49:51;;;;;;;131.57;53.03;;;1.00;99.90;;;;;;10321068;28;20152;-82
2022/12/03 09:54:52;;;;;;;121.43;47.90;;;1.00;99.90;;;;;;10321274;28;20057;-82
2022/12/03 09:59:56;;;;;;;162.77;64.20;;;1.00;99.90;;;;;;10323404;28;20046;-80
2022/12/03 10:04:57;;;;;;;173.40;82.33;;;1.00;99.90;;;;;;10307041;28;20034;-81
2022/12/03 10:09:57;;;;;;;110.10;48.50;;;1.10;99.90;;;;;;10317104;28;20035;-82
2022/12/03 10:14:59;;;;;;;145.80;62.90;;;1.10;99.90;;;;;;10326329;28;20690;-81
2022/12/03 10:20:00;;;;;;;106.27;43.63;;;1.10;99.90;;;;;;10324915;28;20034;-81
2022/12/03 10:25:13;;;;;;;150.07;65.70;;;1.10;99.90;;;;;;10323990;28;20040;-82
2022/12/03 10:30:22;;;;;;;122.73;50.57;;;1.10;99.90;;;;;;10321301;28;20065;-81
2022/12/03 10:35:24;;;;;;;133.97;48.83;;;1.10;99.90;;;;;;10323620;28;20030;-80
2022/12/03 10:40:36;;;;;;;160.53;60.90;;;1.10;99.90;;;;;;10323027;28;20496;-80
2022/12/03 10:45:36;;;;;;;213.33;81.27;;;1.00;99.90;;;;;;10324300;28;20092;-80
2022/12/03 10:50:48;;;;;;;159.77;66.57;;;1.10;99.90;;;;;;10324143;28;20022;-81
2022/12/03 10:55:51;;;;;;;163.87;68.20;;;1.00;99.90;;;;;;10322990;28;20034;-81
2022/12/03 11:00:54;;;;;;;120.70;50.80;;;1.10;99.90;;;;;;10323318;28;20057;-83
2022/12/03 11:05:56;;;;;;;159.87;75.87;;;1.20;99.90;;;;;;10324758;28;20034;-81
2022/12/03 11:11:07;;;;;;;156.43;64.50;;;1.30;99.90;;;;;;10323419;28;20386;-80
2022/12/03 11:16:08;;;;;;;127.60;55.70;;;1.30;99.90;;;;;;10322894;28;20036;-80
2022/12/03 11:21:14;;;;;;;128.17;53.80;;;1.30;99.90;;;;;;10322478;28;20038;-80
2022/12/03 11:32:41;;;;;;;132.65;54.17;;;1.50;99.90;;;;;;10315278;28;20721;-81
2022/12/03 11:37:42;;;;;;;171.97;74.40;;;1.50;99.90;;;;;;10317155;28;20150;-81
2022/12/03 11:42:45;;;;;;;139.07;54.97;;;1.50;99.90;;;;;;10315023;28;20031;-80
2022/12/03 11:48:01;;;;;;;148.70;66.50;;;1.50;99.90;;;;;;10321422;28;20030;-81
2022/12/03 11:53:31;;;;;;;150.37;63.80;;;1.60;99.90;;;;;;10335114;23;20112;-83
2022/12/03 11:58:33;;;;;;;148.30;55.87;;;1.80;99.90;;;;;;10318278;28;20081;-82
2022/12/03 12:03:42;;;;;;;154.33;61.23;;;1.80;99.90;;;;;;10321598;28;20034;-81
2022/12/03 12:14:41;;;;;;;173.30;63.80;;;1.80;99.90;;;;;;10314315;28;20038;-83
2022/12/03 12:25:37;;;;;;;170.63;63.53;;;1.60;99.90;;;;;;10305215;28;20042;-81
2022/12/03 12:30:38;;;;;;;171.57;60.63;;;1.50;99.90;;;;;;10320539;28;20030;-83
2022/12/03 12:41:52;;;;;;;208.00;75.05;;;1.30;99.90;;;;;;10308192;28;20569;-83
2022/12/03 12:46:53;;;;;;;194.87;64.70;;;1.30;99.90;;;;;;10309012;28;20173;-81
2022/12/03 12:51:54;;;;;;;171.27;59.90;;;1.30;99.90;;;;;;10317911;28;20132;-81
2022/12/03 12:56:55;;;;;;;193.53;68.57;;;1.20;99.90;;;;;;10315434;28;20128;-81
2022/12/03 13:01:55;;;;;;;190.03;65.63;;;1.30;99.90;;;;;;10317200;28;20072;-82
2022/12/03 13:06:56;;;;;;;209.83;66.43;;;1.20;99.90;;;;;;10318686;28;20096;-81
2022/12/03 13:12:00;;;;;;;241.60;71.90;;;1.00;99.90;;;;;;10317062;28;20067;-80
2022/12/03 13:17:09;;;;;;;231.60;71.63;;;1.00;99.90;;;;;;10319156;28;20046;-85
2022/12/03 13:22:29;;;;;;;269.70;78.47;;;1.00;99.90;;;;;;10318902;28;20038;-82
2022/12/03 13:27:45;;;;;;;241.07;71.73;;;1.00;99.90;;;;;;10318602;28;20022;-81
2022/12/03 13:32:45;;;;;;;;;;;1.00;99.90;;;;;;10319115;28;20092;-81
2022/12/03 13:37:46;;;;;;;212.57;68.50;;;1.00;99.90;;;;;;10318832;28;19917;-82
2022/12/03 13:42:47;;;;;;;237.43;72.30;;;1.00;99.90;;;;;;10318990;28;20419;-80
2022/12/03 13:47:52;;;;;;;191.63;63.57;;;0.90;99.90;;;;;;10317803;28;20642;-81
2022/12/03 13:52:59;;;;;;;184.70;59.63;;;0.90;99.90;;;;;;10316324;28;20618;-81
2022/12/03 13:58:00;;;;;;;192.73;61.90;;;1.00;99.90;;;;;;10331710;23;20069;-82
2022/12/03 14:03:01;;;;;;;310.20;108.37;;;1.00;99.90;;;;;;10322326;28;20038;-83
2022/12/03 14:08:03;;;;;;;536.00;246.20;;;1.00;99.90;;;;;;10324903;28;20044;-81
2022/12/03 14:13:04;;;;;;;432.43;194.57;;;1.00;99.90;;;;;;10323142;28;20026;-80
2022/12/03 14:18:05;;;;;;;259.77;79.57;;;1.00;99.90;;;;;;10324745;28;20042;-82
2022/12/03 14:23:05;;;;;;;316.70;110.03;;;0.90;99.90;;;;;;10324629;28;20050;-82
2022/12/03 14:28:09;;;;;;;299.80;98.13;;;0.90;99.90;;;;;;10324685;28;20493;-82
2022/12/03 14:33:09;;;;;;;437.77;177.57;;;0.90;99.90;;;;;;10319817;28;20560;-82
2022/12/03 14:38:10;;;;;;;317.43;101.17;;;1.00;99.90;;;;;;10320875;28;20124;-82
2022/12/03 14:43:36;;;;;;;228.00;84.97;;;0.90;99.90;;;;;;10326730;28;20046;-81
2022/12/03 14:48:36;;;;;;;252.05;95.15;;;0.90;99.90;;;;;;10312514;28;20046;-83
2022/12/03 14:53:37;;;;;;;426.40;182.93;;;0.80;99.90;;;;;;10322327;28;20030;-82
2022/12/03 14:58:37;;;;;;;228.40;93.23;;;0.80;99.90;;;;;;10322519;28;20061;-80
2022/12/03 15:03:38;;;;;;;288.00;105.00;;;0.90;99.90;;;;;;10314328;28;20405;-81
2022/12/03 15:08:39;;;;;;;236.83;89.77;;;0.90;99.90;;;;;;10310722;28;20041;-81
2022/12/03 15:13:42;;;;;;;275.10;112.70;;;0.90;99.90;;;;;;10322757;28;20110;-82
2022/12/03 15:18:43;;;;;;;250.13;96.17;;;1.00;99.90;;;;;;10318820;28;20039;-80
2022/12/03 15:23:43;;;;;;;202.87;80.90;;;0.90;99.90;;;;;;10317555;28;20108;-80
2022/12/03 15:28:44;;;;;;;376.00;150.60;;;1.00;99.90;;;;;;10322830;28;20038;-80
2022/12/03 15:34:14;;;;;;;348.47;133.80;;;1.00;99.90;;;;;;10321933;28;20491;-80
2022/12/03 15:39:15;;;;;;;320.63;116.13;;;1.00;99.90;;;;;;10312207;28;20054;-82
2022/12/03 15:44:16;;;;;;;480.60;206.07;;;1.00;99.90;;;;;;10321480;28;20038;-82
2022/12/03 15:49:16;;;;;;;361.87;158.40;;;1.00;99.90;;;;;;10320431;28;20038;-81
2022/12/03 15:54:17;;;;;;;245.67;107.73;;;1.10;99.90;;;;;;10319264;28;20038;-80
2022/12/03 15:59:18;;;;;;;217.30;87.07;;;1.10;99.90;;;;;;10321206;28;20116;-81
2022/12/03 16:04:19;;;;;;;199.33;77.20;;;1.10;99.90;;;;;;10320315;28;20042;-80
2022/12/03 16:09:39;;;;;;;226.83;77.23;;;1.00;99.90;;;;;;10320574;28;20061;-81
2022/12/03 16:14:39;;;;;;;223.00;73.97;;;1.00;99.90;;;;;;10317321;28;20037;-82
2022/12/03 16:19:40;;;;;;;222.23;74.37;;;1.00;99.90;;;;;;10319231;28;20605;-81
2022/12/03 16:25:03;;;;;;;247.60;86.40;;;0.90;99.90;;;;;;10321526;28;20050;-80
2022/12/03 16:30:08;;;;;;;218.03;67.70;;;0.90;99.90;;;;;;10319524;28;20053;-83
2022/12/03 16:35:09;;;;;;;185.17;65.27;;;0.90;99.90;;;;;;10312432;28;20549;-80
2022/12/03 16:40:10;;;;;;;168.53;62.33;;;0.80;99.90;;;;;;10314606;28;20042;-80
2022/12/03 16:45:21;;;;;;;166.77;68.53;;;0.70;99.90;;;;;;10320449;28;20038;-82
2022/12/03 16:50:22;;;;;;;143.90;55.30;;;0.70;99.90;;;;;;10319069;28;20038;-80
2022/12/03 16:55:23;;;;;;;131.00;52.77;;;0.70;99.90;;;;;;10319833;28;20058;-82
2022/12/03 17:00:24;;;;;;;120.17;47.17;;;0.70;99.90;;;;;;10318278;28;20506;-82
2022/12/03 17:05:25;;;;;;;130.47;50.27;;;0.80;99.90;;;;;;10319827;28;20113;-80
2022/12/03 17:10:25;;;;;;;126.03;50.43;;;0.80;99.90;;;;;;10311673;28;20046;-80
2022/12/03 17:15:26;;;;;;;125.17;47.67;;;0.80;99.90;;;;;;10315678;28;20605;-81
2022/12/03 17:20:27;;;;;;;118.10;46.33;;;0.70;99.90;;;;;;10318824;28;20092;-82
2022/12/03 17:25:28;;;;;;;107.83;44.60;;;0.80;99.90;;;;;;10318194;28;20056;-80
2022/12/03 17:30:29;;;;;;;108.77;43.80;;;0.80;99.90;;;;;;10316858;28;20065;-82
2022/12/03 17:35:30;;;;;;;118.00;44.83;;;0.80;99.90;;;;;;10319513;28;20081;-80
2022/12/03 17:40:30;;;;;;;110.50;43.40;;;0.80;99.90;;;;;;10328176;28;20102;-80
2022/12/03 17:45:31;;;;;;;115.73;40.53;;;0.70;99.90;;;;;;10328473;28;20434;-82
2022/12/03 17:50:31;;;;;;;126.53;49.10;;;0.70;99.90;;;;;;10328788;28;20033;-81
2022/12/03 17:55:32;;;;;;;119.67;48.83;;;0.70;99.90;;;;;;10335578;28;20058;-82
2022/12/03 18:00:33;;;;;;;108.13;43.90;;;0.70;99.90;;;;;;10325237;28;20528;-80
2022/12/03 18:05:34;;;;;;;126.00;50.43;;;0.80;99.90;;;;;;10325467;28;20444;-82
2022/12/03 18:10:35;;;;;;;118.80;48.20;;;0.90;99.90;;;;;;10320049;28;20036;-81
2022/12/03 18:15:35;;;;;;;112.97;46.43;;;0.90;99.90;;;;;;10325258;28;20034;-82
2022/12/03 18:20:36;;;;;;;108.63;44.60;;;0.90;99.90;;;;;;10325131;28;20053;-81
2022/12/03 18:25:37;;;;;;;113.37;48.23;;;1.00;99.90;;;;;;10323041;28;20088;-81
2022/12/03 18:30:37;;;;;;;111.60;47.40;;;1.00;99.90;;;;;;10320933;28;20044;-81
2022/12/03 18:35:38;;;;;;;108.83;44.70;;;1.10;99.90;;;;;;10324426;28;20042;-82
2022/12/03 18:40:41;;;;;;;113.43;45.33;;;1.10;99.90;;;;;;10319917;28;20049;-81
2022/12/03 18:45:42;;;;;;;100.87;42.73;;;1.20;99.90;;;;;;10322233;28;20031;-81
2022/12/03 18:50:43;;;;;;;99.90;42.33;;;1.30;99.90;;;;;;10318645;28;20023;-81
2022/12/03 18:55:46;;;;;;;108.07;44.37;;;1.30;99.90;;;;;;10323929;28;20054;-80
2022/12/03 19:00:46;;;;;;;113.30;47.27;;;1.40;99.90;;;;;;10323000;28;20375;-82
2022/12/03 19:05:47;;;;;;;279.83;126.47;;;1.40;99.90;;;;;;10323499;28;20038;-80
2022/12/03 19:10:55;;;;;;;215.27;115.67;;;1.50;99.90;;;;;;10315949;28;20108;-80
2022/12/03 19:15:56;;;;;;;149.67;71.60;;;1.50;99.90;;;;;;10315828;28;20034;-80
2022/12/03 19:20:56;;;;;;;134.70;57.13;;;1.60;99.90;;;;;;10319514;28;20038;-81
2022/12/03 19:25:59;;;;;;;138.97;68.13;;;1.60;99.90;;;;;;10319627;28;20030;-81
2022/12/03 19:31:02;;;;;;;122.27;52.90;;;1.60;99.90;;;;;;10322513;28;20033;-82
2022/12/03 19:36:05;;;;;;;129.20;59.80;;;1.70;99.90;;;;;;10320815;28;20041;-82
2022/12/03 19:41:11;;;;;;;262.37;94.53;;;1.70;99.90;;;;;;10319986;28;20027;-81
2022/12/03 19:46:12;;;;;;;140.37;61.53;;;1.70;99.90;;;;;;10321804;28;20080;-81
2022/12/03 19:51:13;;;;;;;137.67;59.83;;;1.80;99.90;;;;;;10321514;28;20097;-81
2022/12/03 19:56:16;;;;;;;144.80;64.47;;;1.80;99.90;;;;;;10321800;28;20061;-80
2022/12/03 20:01:20;;;;;;;161.77;66.43;;;1.90;99.90;;;;;;10319403;28;20430;-81
2022/12/03 20:06:23;;;;;;;153.30;71.27;;;1.90;99.90;;;;;;10321535;28;20137;-81
2022/12/03 20:11:29;;;;;;;133.50;55.87;;;1.90;99.90;;;;;;10320488;28;20033;-81
2022/12/03 20:16:29;;;;;;;;;;;2.00;99.90;;;;;;10321623;28;20038;-81
2022/12/03 20:21:32;;;;;;;130.43;59.80;;;2.00;99.90;;;;;;10320743;28;20388;-81
2022/12/03 20:26:33;;;;;;;123.07;55.43;;;2.00;99.90;;;;;;10320693;28;20061;-81
2022/12/03 20:31:33;;;;;;;127.30;53.87;;;2.00;99.90;;;;;;10320152;28;20080;-81
2022/12/03 20:36:34;;;;;;;122.10;51.67;;;2.10;99.90;;;;;;10319895;28;20038;-81
2022/12/03 20:41:35;;;;;;;121.87;49.13;;;2.10;99.90;;;;;;10300560;28;20082;-82
2022/12/03 20:46:37;;;;;;;115.40;51.33;;;2.20;99.90;;;;;;10312189;28;20054;-83
2022/12/03 20:51:37;;;;;;;114.47;49.30;;;2.10;99.90;;;;;;10319698;28;20045;-82
2022/12/03 20:56:38;;;;;;;110.37;47.90;;;2.20;99.90;;;;;;10318755;28;20046;-82
2022/12/03 21:01:40;;;;;;;108.20;47.90;;;2.20;99.90;;;;;;10310923;28;21355;-82
2022/12/03 21:06:41;;;;;;;114.27;46.53;;;2.20;99.90;;;;;;10319386;28;20414;-81
2022/12/03 21:11:42;;;;;;;96.57;45.47;;;2.20;99.90;;;;;;10318910;28;20041;-82
2022/12/03 21:16:47;;;;;;;110.07;47.40;;;2.30;99.90;;;;;;10318411;28;20034;-81
2022/12/03 21:21:48;;;;;;;106.70;44.70;;;2.30;99.90;;;;;;10320028;28;20051;-81
2022/12/03 21:26:49;;;;;;;114.57;50.03;;;2.30;99.90;;;;;;10318611;28;20031;-81
2022/12/03 21:31:50;;;;;;;97.90;41.63;;;2.30;99.90;;;;;;10318613;28;20035;-81
2022/12/03 21:36:50;;;;;;;118.23;52.60;;;2.30;99.90;;;;;;10318697;28;20035;-81
2022/12/03 21:41:51;;;;;;;104.30;45.83;;;2.30;99.90;;;;;;10318773;28;20037;-81
2022/12/03 21:46:51;;;;;;;118.57;54.23;;;2.30;99.90;;;;;;10318500;28;20049;-81
2022/12/03 21:51:52;;;;;;;133.30;60.10;;;2.40;99.90;;;;;;10311863;28;20038;-81
2022/12/03 21:56:52;;;;;;;128.07;57.80;;;2.40;99.90;;;;;;10317197;28;20133;-81
2022/12/03 22:01:53;;;;;;;131.57;54.50;;;2.40;99.90;;;;;;10317148;28;20092;-81
2022/12/03 22:06:53;;;;;;;127.07;54.47;;;2.50;99.90;;;;;;10316788;28;20088;-81
2022/12/03 22:11:55;;;;;;;120.60;52.57;;;2.50;99.90;;;;;;10318008;28;20084;-81
2022/12/03 22:16:56;;;;;;;98.50;45.77;;;2.50;99.90;;;;;;10317662;28;20058;-81
2022/12/03 22:21:56;;;;;;;114.10;50.90;;;2.50;99.90;;;;;;10317776;28;20113;-81
2022/12/03 22:26:57;;;;;;;122.10;53.17;;;2.50;99.90;;;;;;10325262;28;20021;-81
2022/12/03 22:31:57;;;;;;;107.60;47.50;;;2.50;99.90;;;;;;10325518;28;20030;-81
2022/12/03 22:36:58;;;;;;;107.03;47.27;;;2.50;99.90;;;;;;10324564;28;20034;-81
2022/12/03 22:41:58;;;;;;;93.80;42.03;;;2.60;99.90;;;;;;10324204;28;20038;-81
2022/12/03 22:46:59;;;;;;;107.27;45.87;;;2.60;99.90;;;;;;10323773;28;20030;-82
2022/12/03 22:51:59;;;;;;;109.27;48.97;;;2.60;99.90;;;;;;10323522;28;20046;-81
2022/12/03 22:57:00;;;;;;;100.17;47.27;;;2.60;99.90;;;;;;10324071;28;20899;-81
2022/12/03 23:02:01;;;;;;;99.90;46.73;;;2.60;99.90;;;;;;10323440;28;20049;-81
2022/12/03 23:07:02;;;;;;;102.63;45.27;;;2.60;99.90;;;;;;10322562;28;20038;-82
2022/12/03 23:12:02;;;;;;;113.50;50.73;;;2.60;99.90;;;;;;10323832;28;20430;-81
2022/12/03 23:17:03;;;;;;;109.03;49.93;;;2.50;99.90;;;;;;10322147;28;20038;-81
2022/12/03 23:22:04;;;;;;;103.90;49.13;;;2.50;99.90;;;;;;10323078;28;20034;-81
2022/12/03 23:27:04;;;;;;;109.03;49.27;;;2.40;99.90;;;;;;10322688;28;20035;-82
2022/12/03 23:32:05;;;;;;;103.63;48.07;;;2.40;99.90;;;;;;10322031;28;20034;-82
2022/12/03 23:37:05;;;;;;;130.90;58.57;;;2.40;99.90;;;;;;10321439;28;20038;-82
2022/12/03 23:42:06;;;;;;;121.07;55.37;;;2.40;99.90;;;;;;10322321;28;20085;-81
2022/12/03 23:47:06;;;;;;;104.53;49.33;;;2.40;99.90;;;;;;10321559;28;20080;-81
2022/12/03 23:52:07;;;;;;;102.10;45.77;;;2.50;99.90;;;;;;10321630;28;20749;-82
2022/12/03 23:57:07;;;;;;;99.43;47.87;;;2.50;99.90;;;;;;10321685;28;20085;-82
